KAID/AID METAR and TAF weather

Enter ICAO airport designator
Station Type Date Time Source
KAID METAR 2019/12/14 06:15 UTC NOAA

KAID 140615Z AUTO 00000KT 10SM BKN030 BKN038 OVC060 02/01 A2975 RMK AO2 T00180007


Station Type Date Time Source
KAID Decoded METAR 2019/12/14 06:15 UTC NOAA

Anderson Municipal, IN, United States (KAID) 40-07N 085-37W
Dec 14, 2019 - 01:15 AM EST / 2019.12.14 0615 UTC
Wind: Calm:0
Visibility: 10 mile(s):0
Sky conditions: overcast
Temperature: 35.2 F (1.8 C)
Dew Point: 33.3 F (0.7 C)
Relative Humidity: 92%
Pressure (altimeter): 29.75 in. Hg (1007 hPa)
ob: KAID 140615Z AUTO 00000KT 10SM BKN030 BKN038 OVC060 02/01 A2975 RMK AO2 T00180007
cycle: 6

Station Type Date Time Source
KAID TAF UTC NOAA

Error!

Example: see airport list